Time;durP1;ratioP1;P1;durP2;ratioP2;P2;SDS_P1;SDS_P2;PMS_P1;PMS_P2;Temp;Humidity;BMP_temperature;BMP_pressure;BME280_temperature;BME280_humidity;BME280_pressure;Samples;Min_cycle;Max_cycle;Signal;HPM_P1;HPM_P2
2023/04/01 00:00:33;;;;;;;46.40;7.17;;;17.10;61.10;;;;;;5030368;28;20219;-92
2023/04/01 00:03:03;;;;;;;55.37;7.50;;;17.10;61.10;;;;;;5028689;28;20269;-91
2023/04/01 00:05:30;;;;;;;35.37;5.97;;;17.10;61.10;;;;;;5030800;28;20205;-92
2023/04/01 00:07:57;;;;;;;44.23;6.77;;;17.10;61.10;;;;;;5030292;28;20201;-92
2023/04/01 00:10:25;;;;;;;38.63;6.60;;;17.10;61.10;;;;;;5029492;28;20221;-92
2023/04/01 00:12:53;;;;;;;39.53;6.40;;;17.00;61.00;;;;;;5022572;28;20676;-92
2023/04/01 00:15:20;;;;;;;40.80;6.53;;;17.10;61.10;;;;;;5028814;28;20231;-92
2023/04/01 00:17:48;;;;;;;45.60;7.53;;;17.10;61.10;;;;;;5030478;28;20254;-92
2023/04/01 00:20:16;;;;;;;47.10;7.17;;;17.10;61.10;;;;;;5029888;28;20207;-91
2023/04/01 00:22:43;;;;;;;43.47;6.93;;;17.10;61.20;;;;;;5030207;28;20226;-92
2023/04/01 00:25:11;;;;;;;45.80;7.10;;;17.10;61.10;;;;;;5028195;28;20211;-92
2023/04/01 00:27:38;;;;;;;39.47;6.67;;;17.10;61.90;;;;;;5030063;28;20233;-92
2023/04/01 00:30:07;;;;;;;46.43;7.37;;;17.10;61.10;;;;;;5029735;28;20649;-92
2023/04/01 00:32:34;;;;;;;48.37;7.20;;;17.10;61.20;;;;;;5026293;28;20212;-92
2023/04/01 00:35:01;;;;;;;41.23;6.57;;;17.10;61.10;;;;;;5023698;28;20297;-92
2023/04/01 00:37:30;;;;;;;31.57;5.87;;;17.10;61.10;;;;;;5027379;28;20203;-92
2023/04/01 00:40:00;;;;;;;50.77;7.57;;;17.00;61.10;;;;;;5027772;28;20201;-93
2023/04/01 00:42:28;;;;;;;35.43;6.07;;;17.10;61.10;;;;;;5026129;28;20208;-93
2023/04/01 00:44:56;;;;;;;31.27;6.13;;;17.00;61.10;;;;;;5028851;28;20247;-93
2023/04/01 00:47:25;;;;;;;44.00;6.60;;;17.00;61.10;;;;;;5028306;28;20217;-94
2023/04/01 00:49:55;;;;;;;52.07;7.07;;;17.10;61.20;;;;;;5027884;28;20225;-92
2023/04/01 00:52:23;;;;;;;41.27;6.10;;;17.00;61.10;;;;;;5025635;28;20222;-93
2023/04/01 00:54:57;;;;;;;38.80;6.37;;;17.00;61.10;;;;;;5026097;28;20199;-92
2023/04/01 00:57:30;;;;;;;38.47;6.73;;;17.00;61.10;;;;;;5039006;28;20685;-93
2023/04/01 00:59:59;;;;;;;39.33;6.23;;;17.00;61.10;;;;;;5034574;28;20202;-93
2023/04/01 01:02:26;;;;;;;33.90;6.00;;;17.00;61.10;;;;;;5029829;28;20238;-92
2023/04/01 01:04:53;;;;;;;30.63;5.73;;;17.10;61.30;;;;;;5028920;28;20207;-92
2023/04/01 01:07:28;;;;;;;36.53;5.93;;;17.00;61.10;;;;;;5029731;28;20750;-93
2023/04/01 01:10:04;;;;;;;36.03;6.10;;;17.00;61.10;;;;;;5021029;28;20206;-91
2023/04/01 01:12:38;;;;;;;31.30;5.40;;;17.00;61.10;;;;;;5009553;28;20205;-92
2023/04/01 01:15:13;;;;;;;55.10;7.33;;;17.00;61.10;;;;;;5010297;28;20193;-91
2023/04/01 01:17:48;;;;;;;41.00;6.67;;;17.00;61.20;;;;;;5025903;28;20266;-93
2023/04/01 01:20:45;;;;;;;50.27;6.97;;;17.00;61.10;;;;;;5029471;28;20548;-91
2023/04/01 01:23:43;;;;;;;35.57;5.87;;;17.00;61.10;;;;;;5002431;28;20238;-92
2023/04/01 01:26:30;;;;;;;43.93;6.53;;;17.00;61.10;;;;;;5016173;28;20209;-91
2023/04/01 01:29:10;;;;;;;35.67;6.10;;;16.90;61.00;;;;;;5010209;28;20220;-94
2023/04/01 01:31:51;;;;;;;34.53;5.47;;;17.00;61.90;;;;;;5026783;28;20568;-91
2023/04/01 01:34:23;;;;;;;46.60;6.83;;;16.90;61.00;;;;;;5036863;28;20209;-94
2023/04/01 01:36:58;;;;;;;35.33;6.30;;;16.90;61.00;;;;;;5031636;28;20200;-93
2023/04/01 01:39:34;;;;;;;40.13;6.03;;;16.90;61.00;;;;;;5028028;28;20213;-93
2023/04/01 01:42:05;;;;;;;46.27;6.80;;;16.90;61.00;;;;;;5027844;28;20263;-93
2023/04/01 01:44:34;;;;;;;65.03;8.57;;;16.90;61.10;;;;;;5027905;28;20221;-92
2023/04/01 01:47:01;;;;;;;36.57;5.60;;;16.90;61.10;;;;;;5027702;28;20209;-93
2023/04/01 01:49:31;;;;;;;38.93;5.83;;;16.90;61.10;;;;;;5027182;28;20254;-93
2023/04/01 01:51:59;;;;;;;33.23;6.10;;;16.90;61.10;;;;;;5024397;28;20672;-93
2023/04/01 01:54:26;;;;;;;41.23;6.43;;;16.90;61.10;;;;;;5028541;28;20600;-93
2023/04/01 01:57:02;;;;;;;41.63;6.10;;;16.90;61.10;;;;;;5024178;28;20202;-94
2023/04/01 01:59:31;;;;;;;41.17;6.07;;;16.90;61.10;;;;;;5025539;28;20264;-94
2023/04/01 02:02:00;;;;;;;35.47;5.70;;;16.90;61.10;;;;;;5025419;28;20213;-94
2023/04/01 02:04:28;;;;;;;42.50;6.77;;;16.90;61.10;;;;;;5028665;28;20234;-93
2023/04/01 02:07:02;;;;;;;40.20;6.77;;;16.90;61.10;;;;;;5027666;28;20214;-93
2023/04/01 02:09:29;;;;;;;42.27;6.03;;;16.80;61.00;;;;;;5028912;28;20569;-93
2023/04/01 02:12:00;;;;;;;43.57;6.70;;;16.80;61.00;;;;;;5028151;28;20212;-92
2023/04/01 02:14:30;;;;;;;41.97;7.17;;;16.80;61.00;;;;;;5028316;28;20220;-92
2023/04/01 02:17:02;;;;;;;37.47;6.13;;;16.90;61.10;;;;;;5028189;28;20219;-92
2023/04/01 02:19:37;;;;;;;41.13;6.67;;;16.90;61.10;;;;;;5018520;28;20199;-92
2023/04/01 02:22:11;;;;;;;46.63;7.10;;;16.90;61.10;;;;;;5016567;28;20211;-93
2023/04/01 02:24:42;;;;;;;37.87;6.37;;;16.80;61.10;;;;;;5027283;28;20235;-93
2023/04/01 02:27:11;;;;;;;57.20;8.07;;;16.90;61.10;;;;;;5027257;28;20210;-92
2023/04/01 02:29:38;;;;;;;47.77;7.30;;;16.80;61.00;;;;;;5026608;28;20215;-93
2023/04/01 02:32:07;;;;;;;55.03;7.33;;;16.80;61.10;;;;;;5026683;28;20208;-93
2023/04/01 02:34:34;;;;;;;35.83;6.23;;;16.80;61.00;;;;;;4994828;28;20206;-94
2023/04/01 02:37:01;;;;;;;33.93;6.00;;;16.80;61.10;;;;;;5027192;28;20657;-91
2023/04/01 02:39:30;;;;;;;37.97;6.10;;;16.80;61.10;;;;;;5022111;28;20208;-91
2023/04/01 02:41:58;;;;;;;39.53;6.47;;;16.80;61.00;;;;;;5025821;28;20212;-91
2023/04/01 02:44:25;;;;;;;51.40;7.20;;;16.90;61.10;;;;;;5026614;28;20233;-91
2023/04/01 02:46:52;;;;;;;39.17;6.27;;;16.90;61.20;;;;;;5026727;28;20290;-91
2023/04/01 02:49:19;;;;;;;42.63;6.40;;;16.80;61.10;;;;;;5029437;28;20202;-91
2023/04/01 02:51:46;;;;;;;61.80;8.40;;;16.80;61.10;;;;;;5029017;28;20210;-91
2023/04/01 02:54:14;;;;;;;44.17;6.70;;;16.80;61.10;;;;;;5030357;28;20201;-91
2023/04/01 02:56:45;;;;;;;33.67;6.10;;;16.80;61.10;;;;;;5031689;28;20296;-91
2023/04/01 02:59:12;;;;;;;37.23;6.20;;;16.80;61.00;;;;;;5028167;28;20251;-91
2023/04/01 03:01:39;;;;;;;41.60;6.40;;;16.80;61.10;;;;;;5023930;28;20203;-90
2023/04/01 03:04:06;;;;;;;31.60;5.57;;;16.80;61.10;;;;;;5030217;28;20232;-91
2023/04/01 03:06:33;;;;;;;63.93;8.40;;;16.80;61.10;;;;;;5029897;28;20677;-93
2023/04/01 03:09:03;;;;;;;36.10;6.23;;;16.80;61.10;;;;;;5030482;28;20204;-91
2023/04/01 03:11:30;;;;;;;76.67;8.97;;;16.80;61.10;;;;;;5029077;28;20244;-92
2023/04/01 03:13:58;;;;;;;35.37;6.20;;;16.80;61.10;;;;;;5030846;28;20224;-92
2023/04/01 03:16:25;;;;;;;42.10;6.20;;;16.80;61.10;;;;;;5029839;28;20573;-91
2023/04/01 03:18:53;;;;;;;41.47;6.27;;;16.80;61.10;;;;;;5030875;28;20247;-91
2023/04/01 03:21:22;;;;;;;69.30;8.77;;;16.80;61.10;;;;;;5003270;28;20194;-92
2023/04/01 03:23:49;;;;;;;35.43;5.80;;;16.80;61.20;;;;;;5021909;28;20230;-91
2023/04/01 03:26:17;;;;;;;35.20;5.70;;;16.80;61.20;;;;;;5029474;28;20216;-91
2023/04/01 03:28:44;;;;;;;50.73;7.33;;;16.80;61.20;;;;;;5029846;28;20257;-91
2023/04/01 03:31:13;;;;;;;33.30;6.03;;;16.70;61.10;;;;;;5029673;28;20643;-91
2023/04/01 03:33:40;;;;;;;38.73;6.20;;;16.70;61.10;;;;;;5014109;28;20712;-92
2023/04/01 03:36:08;;;;;;;54.97;7.43;;;16.80;61.20;;;;;;5028814;28;20209;-91
2023/04/01 03:38:35;;;;;;;30.80;5.57;;;16.80;61.20;;;;;;5012044;28;20841;-92
2023/04/01 03:41:03;;;;;;;53.90;7.37;;;16.80;61.20;;;;;;5023540;28;20209;-91
2023/04/01 03:43:30;;;;;;;41.77;6.00;;;16.70;61.10;;;;;;5029239;28;20299;-90
2023/04/01 03:45:57;;;;;;;31.37;5.40;;;16.70;61.10;;;;;;5029928;28;20206;-91
2023/04/01 03:48:26;;;;;;;34.67;5.70;;;16.70;61.10;;;;;;5029628;28;20312;-91
2023/04/01 03:50:53;;;;;;;40.33;6.10;;;16.70;61.10;;;;;;5029169;28;20663;-91
2023/04/01 03:53:20;;;;;;;39.13;6.93;;;16.70;61.10;;;;;;5029679;28;20821;-91
2023/04/01 03:55:48;;;;;;;61.27;8.27;;;16.70;61.10;;;;;;5026519;28;20277;-91
2023/04/01 03:58:15;;;;;;;36.13;6.13;;;16.70;61.10;;;;;;5024446;28;20687;-91
2023/04/01 04:00:41;;;;;;;36.77;6.10;;;16.70;61.10;;;;;;5028528;28;20198;-90
2023/04/01 04:03:08;;;;;;;31.87;6.00;;;16.70;61.20;;;;;;5024772;28;20213;-91
2023/04/01 04:05:37;;;;;;;56.97;8.03;;;16.70;61.10;;;;;;5009567;28;20234;-91
2023/04/01 04:08:04;;;;;;;36.13;6.43;;;16.70;61.20;;;;;;5029962;28;20274;-91
2023/04/01 04:10:31;;;;;;;29.70;5.47;;;16.70;61.20;;;;;;5029683;28;20754;-91
2023/04/01 04:12:58;;;;;;;37.80;6.30;;;16.70;61.20;;;;;;5029775;28;20559;-91
2023/04/01 04:15:25;;;;;;;29.73;5.60;;;16.90;61.40;;;;;;5030330;28;20212;-92
2023/04/01 04:17:53;;;;;;;39.80;6.67;;;16.70;61.20;;;;;;5029045;28;20215;-91
2023/04/01 04:20:20;;;;;;;47.63;7.27;;;16.70;61.20;;;;;;5027007;28;20233;-89
2023/04/01 04:22:48;;;;;;;38.50;6.83;;;16.70;61.30;;;;;;5017584;28;20663;-93
2023/04/01 04:25:16;;;;;;;52.20;7.73;;;16.70;61.20;;;;;;5026212;28;20319;-92
2023/04/01 04:27:42;;;;;;;40.20;7.20;;;16.70;61.20;;;;;;5030145;28;20232;-91
2023/04/01 04:30:10;;;;;;;32.27;7.00;;;16.70;61.30;;;;;;5038074;28;20214;-91
2023/04/01 04:32:38;;;;;;;37.87;6.57;;;16.70;61.20;;;;;;5039102;28;20208;-90
2023/04/01 04:35:06;;;;;;;64.10;8.50;;;16.80;61.40;;;;;;5029890;28;20684;-91
2023/04/01 04:37:33;;;;;;;37.73;6.57;;;16.70;61.30;;;;;;5028709;28;20211;-91
2023/04/01 04:40:01;;;;;;;32.30;5.90;;;16.70;61.30;;;;;;5011639;28;20214;-91
2023/04/01 04:42:28;;;;;;;35.03;5.77;;;16.70;62.10;;;;;;5030054;28;20210;-91
2023/04/01 04:44:56;;;;;;;30.47;6.20;;;16.70;62.10;;;;;;5027775;28;20619;-91
2023/04/01 04:47:23;;;;;;;34.03;6.10;;;16.70;61.20;;;;;;5030543;28;20213;-93
2023/04/01 04:49:50;;;;;;;56.17;7.77;;;16.70;61.30;;;;;;5029031;28;20219;-93
2023/04/01 04:52:16;;;;;;;47.93;7.30;;;16.70;61.30;;;;;;5015029;28;20207;-94
2023/04/01 04:54:43;;;;;;;45.13;6.70;;;16.70;61.30;;;;;;5029861;28;20213;-93
2023/04/01 04:57:12;;;;;;;40.83;6.67;;;16.70;61.30;;;;;;5029186;28;20205;-93
2023/04/01 04:59:38;;;;;;;38.80;6.90;;;16.70;61.30;;;;;;5028325;28;20207;-91
2023/04/01 05:02:06;;;;;;;42.33;6.20;;;16.70;61.40;;;;;;5028862;28;20205;-92
2023/04/01 05:04:36;;;;;;;45.93;6.90;;;16.70;61.40;;;;;;5022336;28;20271;-92
2023/04/01 05:07:03;;;;;;;52.73;7.37;;;16.70;61.40;;;;;;5025759;28;20197;-93
2023/04/01 05:09:31;;;;;;;41.07;6.27;;;16.70;61.40;;;;;;5027977;28;20216;-93
2023/04/01 05:11:59;;;;;;;38.37;6.40;;;16.70;61.40;;;;;;5028897;28;20197;-93
2023/04/01 05:14:27;;;;;;;36.97;5.90;;;16.70;61.40;;;;;;5029241;28;20211;-94
2023/04/01 05:16:55;;;;;;;49.10;6.87;;;16.70;61.40;;;;;;5009657;28;20197;-92
2023/04/01 05:19:21;;;;;;;42.83;6.77;;;16.70;61.40;;;;;;5027939;28;20571;-91
2023/04/01 05:21:49;;;;;;;55.47;7.37;;;16.70;61.40;;;;;;5028443;28;20635;-91
2023/04/01 05:24:16;;;;;;;39.53;6.33;;;16.70;61.40;;;;;;5025500;28;20242;-91
2023/04/01 05:26:43;;;;;;;38.83;6.00;;;16.70;61.40;;;;;;5009284;28;20214;-91
2023/04/01 05:29:11;;;;;;;46.03;6.60;;;16.70;61.30;;;;;;5003381;28;20229;-92
2023/04/01 05:31:39;;;;;;;37.10;6.70;;;16.70;61.40;;;;;;5028173;28;20300;-91
2023/04/01 05:34:06;;;;;;;35.20;5.77;;;16.70;61.40;;;;;;5028807;28;20213;-92
2023/04/01 05:36:34;;;;;;;48.97;6.87;;;16.70;61.40;;;;;;5028394;28;20211;-91
2023/04/01 05:39:01;;;;;;;34.73;6.03;;;16.70;61.70;;;;;;5028605;28;20203;-91
2023/04/01 05:41:27;;;;;;;38.73;6.00;;;16.70;61.40;;;;;;5017558;28;20296;-91
2023/04/01 05:43:55;;;;;;;37.50;6.23;;;16.70;61.40;;;;;;5017092;28;20203;-90
2023/04/01 05:46:22;;;;;;;39.93;6.30;;;16.70;61.40;;;;;;5028878;28;20192;-92
2023/04/01 05:48:50;;;;;;;35.83;5.83;;;16.70;61.30;;;;;;5027631;28;21329;-91
2023/04/01 05:51:17;;;;;;;34.97;5.93;;;16.70;61.40;;;;;;5028430;28;20682;-91
2023/04/01 05:53:44;;;;;;;45.77;6.80;;;16.70;61.30;;;;;;5027551;28;20543;-90
2023/04/01 05:56:11;;;;;;;41.63;6.40;;;16.70;61.40;;;;;;5027075;28;20283;-91
2023/04/01 05:58:38;;;;;;;29.27;4.63;;;16.70;61.30;;;;;;5027994;28;20217;-91
2023/04/01 06:01:08;;;;;;;38.97;6.10;;;16.70;61.30;;;;;;5024249;28;20208;-93
2023/04/01 06:03:37;;;;;;;35.47;5.87;;;16.70;61.40;;;;;;5028572;28;20197;-90
2023/04/01 06:06:15;;;;;;;42.93;6.23;;;16.70;61.40;;;;;;5028175;28;20773;-91
2023/04/01 06:08:42;;;;;;;36.97;5.93;;;16.70;61.40;;;;;;5028334;28;20204;-91
2023/04/01 06:11:20;;;;;;;33.57;5.50;;;16.70;61.40;;;;;;5028487;28;20197;-93
2023/04/01 06:14:05;;;;;;;43.80;6.73;;;16.70;61.40;;;;;;5028651;28;20272;-91
2023/04/01 06:16:45;;;;;;;38.60;6.00;;;16.70;61.40;;;;;;5026884;28;20209;-92
2023/04/01 06:19:27;;;;;;;42.53;6.17;;;16.70;61.40;;;;;;5026503;28;20207;-92
2023/04/01 06:22:17;;;;;;;37.27;5.50;;;16.70;61.40;;;;;;5026343;28;20212;-92
2023/04/01 06:25:03;;;;;;;35.53;5.63;;;16.70;61.40;;;;;;5031318;28;20642;-93
2023/04/01 06:27:47;;;;;;;37.23;5.90;;;16.70;61.30;;;;;;5032706;28;20220;-93
2023/04/01 06:30:33;;;;;;;33.87;5.70;;;16.70;61.40;;;;;;5032620;28;20210;-91
2023/04/01 06:33:12;;;;;;;40.03;5.90;;;16.70;61.40;;;;;;5032801;28;20219;-92
2023/04/01 06:36:15;;;;;;;40.80;6.30;;;16.70;61.30;;;;;;5030540;28;20209;-92
2023/04/01 06:39:09;;;;;;;46.13;6.70;;;16.70;61.30;;;;;;5028725;28;20619;-93
2023/04/01 06:42:09;;;;;;;35.17;5.50;;;16.70;61.40;;;;;;5029902;28;20208;-92
2023/04/01 06:44:45;;;;;;;38.57;5.50;;;16.70;61.30;;;;;;5007885;28;20233;-93
2023/04/01 06:47:29;;;;;;;38.90;5.70;;;16.70;61.40;;;;;;5031662;28;20199;-92
2023/04/01 06:50:04;;;;;;;39.43;5.93;;;16.70;61.40;;;;;;5031710;28;20216;-92
2023/04/01 06:52:44;;;;;;;38.30;6.17;;;16.70;62.20;;;;;;5032064;28;20216;-92
2023/04/01 06:55:28;;;;;;;40.40;5.43;;;16.70;61.40;;;;;;5027434;28;20344;-92
2023/04/01 06:57:59;;;;;;;44.33;6.13;;;16.60;61.30;;;;;;5011695;28;20302;-91
2023/04/01 07:00:31;;;;;;;46.77;6.77;;;16.70;61.30;;;;;;5016516;28;20222;-92
2023/04/01 07:03:06;;;;;;;41.83;5.90;;;16.70;61.30;;;;;;5031863;28;20201;-93
2023/04/01 07:05:35;;;;;;;57.73;7.37;;;16.70;61.40;;;;;;5029709;28;20244;-93
2023/04/01 07:08:05;;;;;;;36.73;5.80;;;16.70;61.40;;;;;;5030026;28;20649;-92
2023/04/01 07:10:43;;;;;;;38.00;5.63;;;16.70;61.40;;;;;;5014052;28;20360;-93
2023/04/01 07:13:16;;;;;;;39.43;5.83;;;16.70;61.40;;;;;;5031141;28;20194;-92
2023/04/01 07:15:46;;;;;;;45.17;6.40;;;16.70;61.40;;;;;;5031193;28;20662;-93
2023/04/01 07:18:18;;;;;;;39.83;5.73;;;16.70;61.40;;;;;;5030250;28;20203;-92
2023/04/01 07:20:46;;;;;;;37.17;5.87;;;16.60;61.30;;;;;;5031541;28;20221;-92
2023/04/01 07:23:21;;;;;;;45.40;6.17;;;16.60;61.30;;;;;;5029635;28;20211;-92
2023/04/01 07:25:55;;;;;;;40.57;5.77;;;16.60;61.30;;;;;;5020782;28;20322;-92
2023/04/01 07:28:23;;;;;;;33.83;5.43;;;16.70;61.40;;;;;;5030288;28;20225;-91
2023/04/01 07:30:58;;;;;;;45.00;6.17;;;16.60;61.30;;;;;;5031252;28;20620;-91
2023/04/01 07:33:34;;;;;;;37.93;6.10;;;16.70;61.40;;;;;;5031312;28;20294;-94
2023/04/01 07:36:07;;;;;;;33.57;5.67;;;16.70;61.40;;;;;;5029660;28;20208;-91
2023/04/01 07:38:44;;;;;;;34.43;5.73;;;16.60;61.40;;;;;;5024634;28;20204;-93
2023/04/01 07:41:22;;;;;;;38.50;6.10;;;16.60;62.10;;;;;;5030202;28;20217;-92
2023/04/01 07:44:02;;;;;;;36.00;5.70;;;16.70;61.40;;;;;;5013296;28;20212;-91
2023/04/01 07:46:50;;;;;;;38.93;5.67;;;16.60;61.30;;;;;;5028808;28;20596;-92
2023/04/01 07:49:23;;;;;;;30.17;5.43;;;16.60;61.30;;;;;;5018707;28;20319;-92
2023/04/01 07:52:01;;;;;;;64.47;7.50;;;16.60;61.30;;;;;;5029490;28;20955;-92
2023/04/01 07:54:39;;;;;;;47.10;6.83;;;16.60;61.30;;;;;;5026700;28;20331;-92
2023/04/01 07:57:11;;;;;;;60.30;7.53;;;16.70;61.40;;;;;;5028904;28;20219;-92
2023/04/01 07:59:49;;;;;;;31.07;5.13;;;16.60;61.30;;;;;;5030145;28;20302;-93
2023/04/01 08:02:29;;;;;;;32.07;5.50;;;16.60;61.40;;;;;;5022492;28;20566;-93
2023/04/01 08:05:05;;;;;;;37.33;5.63;;;16.60;61.40;;;;;;5017467;28;20209;-92
2023/04/01 08:07:39;;;;;;;36.37;5.67;;;16.60;61.40;;;;;;5028120;28;20216;-92
2023/04/01 08:10:14;;;;;;;33.70;5.53;;;16.60;61.40;;;;;;5027832;28;20214;-92
2023/04/01 08:13:03;;;;;;;47.70;6.53;;;16.60;61.40;;;;;;5031068;28;20252;-92
2023/04/01 08:15:37;;;;;;;51.23;6.77;;;16.60;61.40;;;;;;5031031;28;20318;-93
2023/04/01 08:18:14;;;;;;;37.87;5.53;;;16.60;62.20;;;;;;5020778;28;20558;-94
2023/04/01 08:20:47;;;;;;;39.07;5.83;;;16.60;61.50;;;;;;5032579;28;20244;-93
2023/04/01 08:23:17;;;;;;;31.83;5.70;;;16.70;61.50;;;;;;5024009;28;20198;-95
2023/04/01 08:25:51;;;;;;;36.17;5.63;;;16.60;61.50;;;;;;5030536;28;20321;-93
2023/04/01 08:28:25;;;;;;;36.30;5.50;;;16.60;61.50;;;;;;5032364;28;20228;-92
2023/04/01 08:30:57;;;;;;;33.77;5.17;;;16.60;61.50;;;;;;5032605;28;20207;-94
2023/04/01 08:33:27;;;;;;;61.60;7.87;;;16.60;61.50;;;;;;5030455;28;20643;-93
2023/04/01 08:35:58;;;;;;;35.50;5.67;;;16.60;61.50;;;;;;5027155;28;20255;-94
2023/04/01 08:38:30;;;;;;;37.00;5.83;;;16.60;61.50;;;;;;5035608;28;20187;-95
2023/04/01 08:41:02;;;;;;;40.43;6.13;;;16.60;61.50;;;;;;5032645;28;20240;-93
2023/04/01 08:43:55;;;;;;;48.23;6.77;;;16.60;61.50;;;;;;5031478;28;20224;-94
2023/04/01 08:46:57;;;;;;;31.30;4.97;;;16.60;61.60;;;;;;5023121;28;20235;-91
2023/04/01 08:49:52;;;;;;;40.60;6.27;;;16.60;61.60;;;;;;5030844;28;20214;-92
2023/04/01 08:52:34;;;;;;;32.53;5.93;;;16.60;61.60;;;;;;5033707;28;20295;-93
2023/04/01 08:55:20;;;;;;;36.90;5.87;;;16.60;61.60;;;;;;5029269;28;20236;-93
2023/04/01 08:57:57;;;;;;;37.00;5.77;;;16.60;61.60;;;;;;5030019;28;20218;-92
2023/04/01 09:00:32;;;;;;;28.27;5.47;;;16.50;61.50;;;;;;5030079;28;20208;-92
2023/04/01 09:03:32;;;;;;;26.50;5.17;;;16.60;61.60;;;;;;5030220;28;20649;-91
2023/04/01 09:06:30;;;;;;;34.73;5.67;;;16.60;61.60;;;;;;5025303;28;20237;-91
2023/04/01 09:09:25;;;;;;;27.90;5.03;;;16.60;61.70;;;;;;4995627;28;20204;-92
2023/04/01 09:12:27;;;;;;;28.63;5.50;;;16.60;61.60;;;;;;5021864;28;20285;-92
2023/04/01 09:15:07;;;;;;;27.27;5.40;;;16.60;61.60;;;;;;5009489;28;20212;-92
2023/04/01 09:18:03;;;;;;;63.10;8.07;;;16.60;61.60;;;;;;5010002;28;20681;-92
2023/04/01 09:20:59;;;;;;;34.33;5.37;;;16.60;61.70;;;;;;5028811;28;20201;-92
2023/04/01 09:23:42;;;;;;;33.00;5.57;;;16.60;61.70;;;;;;5020280;28;20390;-92
2023/04/01 09:26:29;;;;;;;35.37;5.70;;;16.60;61.70;;;;;;5009914;28;20244;-90
2023/04/01 09:29:06;;;;;;;32.23;5.43;;;16.60;61.70;;;;;;5017967;28;20232;-93
2023/04/01 09:32:04;;;;;;;35.33;5.77;;;16.60;61.70;;;;;;5029666;28;20668;-94
2023/04/01 09:34:55;;;;;;;32.60;5.17;;;16.60;61.70;;;;;;5032222;28;20718;-92
2023/04/01 09:37:46;;;;;;;24.80;5.13;;;16.60;61.80;;;;;;5028328;28;20208;-90
2023/04/01 09:40:18;;;;;;;30.97;5.43;;;16.60;61.70;;;;;;5028783;28;20206;-90
2023/04/01 09:42:55;;;;;;;44.37;6.17;;;16.60;61.70;;;;;;5010779;28;20210;-92
2023/04/01 09:45:38;;;;;;;31.27;5.47;;;16.60;61.70;;;;;;5029496;28;20567;-91
2023/04/01 09:48:32;;;;;;;31.43;5.47;;;16.60;61.80;;;;;;5029254;28;20209;-91
2023/04/01 09:51:21;;;;;;;34.13;5.30;;;16.60;61.80;;;;;;5013162;28;20644;-92
2023/04/01 09:54:02;;;;;;;32.60;5.20;;;16.60;61.80;;;;;;5009296;28;20274;-90
2023/04/01 09:57:10;;;;;;;18.83;4.33;;;16.60;61.80;;;;;;5009382;28;20953;-91
2023/04/01 10:00:09;;;;;;;22.23;4.23;;;16.60;61.80;;;;;;5015881;28;20212;-90
2023/04/01 10:03:03;;;;;;;22.67;4.67;;;16.60;61.90;;;;;;5029802;28;20232;-93
2023/04/01 10:05:55;;;;;;;53.97;6.93;;;16.60;61.80;;;;;;5030151;28;20205;-89
2023/04/01 10:08:55;;;;;;;20.27;4.30;;;16.60;61.80;;;;;;5037515;28;20231;-93
2023/04/01 10:12:13;;;;;;;25.83;4.70;;;16.60;61.90;;;;;;5042360;28;20207;-92
2023/04/01 10:15:11;;;;;;;22.30;4.40;;;16.60;62.00;;;;;;5030850;28;20205;-91
2023/04/01 10:18:13;;;;;;;17.20;4.33;;;16.60;61.90;;;;;;4993141;28;20266;-96
2023/04/01 10:20:56;;;;;;;24.47;5.00;;;16.60;62.00;;;;;;5015294;28;20235;-95
2023/04/01 10:23:54;;;;;;;23.13;4.53;;;16.60;61.90;;;;;;5072819;28;20260;-92
2023/04/01 10:26:40;;;;;;;42.97;6.23;;;16.60;62.00;;;;;;5063404;28;20296;-91
2023/04/01 10:29:51;;;;;;;24.67;4.83;;;16.60;62.00;;;;;;5031590;28;20236;-91
2023/04/01 10:33:05;;;;;;;15.70;3.97;;;16.60;62.10;;;;;;5026547;28;20258;-91
2023/04/01 10:36:14;;;;;;;18.00;3.97;;;16.60;62.10;;;;;;5018333;28;20211;-92
2023/04/01 10:39:18;;;;;;;21.70;4.40;;;16.60;62.10;;;;;;5011800;28;20229;-91
2023/04/01 10:42:22;;;;;;;14.47;3.63;;;16.60;62.10;;;;;;5019073;28;20217;-91
2023/04/01 10:45:26;;;;;;;32.47;5.17;;;16.60;62.10;;;;;;5034660;28;20540;-91
2023/04/01 10:48:16;;;;;;;28.27;5.23;;;16.60;62.10;;;;;;5042662;28;20205;-90
2023/04/01 10:51:19;;;;;;;29.73;5.10;;;16.60;62.10;;;;;;5036993;28;20197;-91
2023/04/01 10:54:19;;;;;;;37.87;5.57;;;16.60;62.10;;;;;;5015338;28;20213;-91
2023/04/01 10:57:00;;;;;;;27.80;4.97;;;16.60;62.10;;;;;;5009522;28;20291;-91
2023/04/01 11:00:03;;;;;;;20.87;4.50;;;16.60;62.10;;;;;;4990970;28;20205;-91
2023/04/01 11:03:15;;;;;;;27.93;4.97;;;16.70;62.20;;;;;;5027469;28;20203;-91
2023/04/01 11:06:18;;;;;;;17.20;3.97;;;16.60;62.10;;;;;;5004817;28;20297;-91
2023/04/01 11:09:20;;;;;;;35.77;5.57;;;16.60;62.10;;;;;;5028416;28;20263;-91
2023/04/01 11:12:07;;;;;;;31.83;5.33;;;16.60;62.10;;;;;;5032481;28;20209;-91
2023/04/01 11:15:08;;;;;;;39.30;6.23;;;16.60;62.10;;;;;;5001532;28;20296;-91
2023/04/01 11:18:08;;;;;;;33.03;5.57;;;16.60;62.10;;;;;;5032034;28;20644;-94
2023/04/01 11:21:08;;;;;;;40.07;6.03;;;16.60;62.10;;;;;;5020782;28;20202;-95
2023/04/01 11:24:08;;;;;;;48.17;6.63;;;16.70;62.20;;;;;;5026827;28;20212;-95
2023/04/01 11:26:52;;;;;;;40.03;6.57;;;16.60;62.10;;;;;;4998092;28;20248;-93
2023/04/01 11:30:13;;;;;;;43.77;6.73;;;16.60;62.10;;;;;;5030334;28;20197;-90
2023/04/01 11:32:50;;;;;;;21.57;4.70;;;16.70;62.20;;;;;;4908430;29;20213;-91
2023/04/01 11:35:35;;;;;;;54.50;7.37;;;16.60;62.10;;;;;;4929262;29;20318;-94
2023/04/01 11:38:16;;;;;;;45.83;6.97;;;16.60;62.10;;;;;;4982195;28;20698;-91
2023/04/01 11:40:51;;;;;;;32.17;5.53;;;16.70;62.20;;;;;;5034928;28;20243;-92
2023/04/01 11:43:28;;;;;;;58.60;7.67;;;16.60;62.10;;;;;;5035961;28;20212;-92
2023/04/01 11:46:11;;;;;;;46.57;6.83;;;16.70;62.20;;;;;;5029141;28;20225;-91
2023/04/01 11:49:07;;;;;;;34.70;5.43;;;16.60;62.10;;;;;;5010846;28;20261;-90
2023/04/01 11:51:51;;;;;;;35.00;5.93;;;16.70;62.20;;;;;;5018467;28;20582;-91
2023/04/01 11:54:41;;;;;;;34.80;5.73;;;16.70;62.20;;;;;;5018703;28;20587;-91
2023/04/01 11:57:44;;;;;;;41.27;6.43;;;16.70;62.20;;;;;;5029727;28;20766;-92
2023/04/01 12:00:32;;;;;;;32.00;5.73;;;16.70;62.20;;;;;;5029460;28;20210;-93
2023/04/01 12:03:26;;;;;;;35.90;5.60;;;16.70;62.20;;;;;;5030592;28;20290;-92
2023/04/01 12:05:59;;;;;;;40.43;6.57;;;16.70;62.20;;;;;;4999780;28;20696;-91
2023/04/01 12:08:37;;;;;;;47.43;6.57;;;16.70;62.20;;;;;;5016909;28;20241;-91
2023/04/01 12:11:16;;;;;;;41.83;6.50;;;16.70;62.20;;;;;;5029789;28;20217;-91
2023/04/01 12:13:50;;;;;;;43.50;6.60;;;16.70;62.20;;;;;;5028026;28;20212;-91
2023/04/01 12:16:42;;;;;;;46.70;6.60;;;16.70;62.20;;;;;;5029407;28;20212;-91
2023/04/01 12:19:18;;;;;;;40.03;6.10;;;16.70;62.20;;;;;;5028876;28;20737;-92
2023/04/01 12:21:55;;;;;;;42.00;6.67;;;16.70;62.20;;;;;;5028878;28;20220;-91
2023/04/01 12:24:36;;;;;;;46.73;6.90;;;16.70;62.20;;;;;;5028279;28;20324;-91
2023/04/01 12:27:19;;;;;;;41.80;7.47;;;16.70;62.20;;;;;;5026420;28;20224;-91
2023/04/01 12:30:15;;;;;;;38.13;7.10;;;16.70;62.20;;;;;;5028852;28;20207;-91
2023/04/01 12:32:47;;;;;;;43.37;7.77;;;16.60;62.10;;;;;;5024123;28;20227;-91
2023/04/01 12:35:21;;;;;;;36.93;6.97;;;16.70;62.20;;;;;;5027887;28;20211;-90
2023/04/01 12:38:00;;;;;;;36.27;7.43;;;16.70;62.20;;;;;;5028795;28;20239;-91
2023/04/01 12:40:52;;;;;;;32.80;7.73;;;16.70;62.20;;;;;;5030054;28;20233;-91
2023/04/01 12:43:44;;;;;;;38.80;7.43;;;16.70;62.20;;;;;;5029491;28;20287;-92
2023/04/01 12:46:52;;;;;;;38.07;8.07;;;16.70;62.20;;;;;;5014607;28;20307;-93
2023/04/01 12:49:51;;;;;;;39.77;8.47;;;16.70;62.60;;;;;;5027253;28;20201;-94
2023/04/01 12:52:26;;;;;;;35.57;8.47;;;16.70;63.00;;;;;;5029714;28;20252;-93
2023/04/01 12:55:26;;;;;;;39.83;8.23;;;16.70;62.20;;;;;;5029892;28;20200;-93
2023/04/01 12:58:18;;;;;;;51.53;8.60;;;16.70;62.20;;;;;;5029134;28;20208;-92
2023/04/01 13:00:58;;;;;;;37.80;7.63;;;16.70;62.20;;;;;;5029042;28;20275;-92
2023/04/01 13:03:47;;;;;;;37.13;7.60;;;16.70;62.20;;;;;;5029598;28;20685;-93
2023/04/01 13:06:44;;;;;;;49.70;9.17;;;16.70;62.20;;;;;;5014213;28;20210;-91
2023/04/01 13:09:26;;;;;;;46.07;8.47;;;16.70;62.20;;;;;;5026355;28;20725;-91
2023/04/01 13:12:08;;;;;;;74.90;11.07;;;16.70;62.20;;;;;;5025896;28;20201;-91
2023/04/01 13:14:58;;;;;;;50.37;8.70;;;16.70;62.20;;;;;;5017142;28;20310;-91
2023/04/01 13:17:32;;;;;;;50.53;8.97;;;16.70;62.20;;;;;;5028415;28;20205;-93
2023/04/01 13:20:07;;;;;;;34.40;7.87;;;16.70;62.20;;;;;;5011604;28;20580;-92
2023/04/01 13:22:53;;;;;;;45.73;8.50;;;16.70;62.20;;;;;;5026774;28;20205;-91
2023/04/01 13:25:28;;;;;;;35.10;7.67;;;16.70;62.20;;;;;;5025007;28;20244;-91
2023/04/01 13:28:04;;;;;;;42.13;7.87;;;16.70;62.20;;;;;;5028380;28;20234;-93